sensor_id;sensor_type;location;lat;lon;timestamp;temperature;humidity
68026;SHT31;54819;48.030;14.710;2023-08-31T00:01:32;14.72;77.08
68026;SHT31;54819;48.030;14.710;2023-08-31T00:03:59;14.69;77.37
68026;SHT31;54819;48.030;14.710;2023-08-31T00:06:26;14.68;77.65
68026;SHT31;54819;48.030;14.710;2023-08-31T00:08:53;14.65;77.79
68026;SHT31;54819;48.030;14.710;2023-08-31T00:11:20;14.63;77.96
68026;SHT31;54819;48.030;14.710;2023-08-31T00:13:47;14.60;78.04
68026;SHT31;54819;48.030;14.710;2023-08-31T00:16:13;14.59;77.99
68026;SHT31;54819;48.030;14.710;2023-08-31T00:18:40;14.56;77.93
68026;SHT31;54819;48.030;14.710;2023-08-31T00:21:07;14.54;77.98
68026;SHT31;54819;48.030;14.710;2023-08-31T00:23:36;14.52;78.42
68026;SHT31;54819;48.030;14.710;2023-08-31T00:26:03;14.48;78.52
68026;SHT31;54819;48.030;14.710;2023-08-31T00:28:31;14.46;78.66
68026;SHT31;54819;48.030;14.710;2023-08-31T00:31:00;14.44;78.77
68026;SHT31;54819;48.030;14.710;2023-08-31T00:33:30;14.42;78.93
68026;SHT31;54819;48.030;14.710;2023-08-31T00:36:00;14.40;79.16
68026;SHT31;54819;48.030;14.710;2023-08-31T00:38:27;14.39;79.49
68026;SHT31;54819;48.030;14.710;2023-08-31T00:40:55;14.38;79.60
68026;SHT31;54819;48.030;14.710;2023-08-31T00:43:22;14.38;79.77
68026;SHT31;54819;48.030;14.710;2023-08-31T00:45:51;14.39;79.46
68026;SHT31;54819;48.030;14.710;2023-08-31T00:48:20;14.40;79.21
68026;SHT31;54819;48.030;14.710;2023-08-31T00:50:49;14.42;79.24
68026;SHT31;54819;48.030;14.710;2023-08-31T00:53:19;14.44;79.08
68026;SHT31;54819;48.030;14.710;2023-08-31T00:55:46;14.46;78.83
68026;SHT31;54819;48.030;14.710;2023-08-31T00:58:13;14.50;78.82
68026;SHT31;54819;48.030;14.710;2023-08-31T01:00:54;14.53;78.69
68026;SHT31;54819;48.030;14.710;2023-08-31T01:09:16;14.56;78.26
68026;SHT31;54819;48.030;14.710;2023-08-31T01:12:00;14.56;78.17
68026;SHT31;54819;48.030;14.710;2023-08-31T01:14:32;14.54;78.11
68026;SHT31;54819;48.030;14.710;2023-08-31T01:17:04;14.52;78.20
68026;SHT31;54819;48.030;14.710;2023-08-31T01:19:51;14.48;78.16
68026;SHT31;54819;48.030;14.710;2023-08-31T01:25:06;14.37;78.20
68026;SHT31;54819;48.030;14.710;2023-08-31T01:27:35;14.32;78.24
68026;SHT31;54819;48.030;14.710;2023-08-31T01:30:04;14.24;78.42
68026;SHT31;54819;48.030;14.710;2023-08-31T01:32:32;14.16;78.63
68026;SHT31;54819;48.030;14.710;2023-08-31T01:35:00;14.07;78.74
68026;SHT31;54819;48.030;14.710;2023-08-31T01:37:37;14.01;78.98
68026;SHT31;54819;48.030;14.710;2023-08-31T01:40:27;13.93;79.28
68026;SHT31;54819;48.030;14.710;2023-08-31T01:43:02;13.85;79.45
68026;SHT31;54819;48.030;14.710;2023-08-31T01:45:32;13.76;79.62
68026;SHT31;54819;48.030;14.710;2023-08-31T01:48:00;13.69;79.78
68026;SHT31;54819;48.030;14.710;2023-08-31T01:50:27;13.61;80.11
68026;SHT31;54819;48.030;14.710;2023-08-31T01:52:54;13.52;80.35
68026;SHT31;54819;48.030;14.710;2023-08-31T01:55:22;13.45;80.52
68026;SHT31;54819;48.030;14.710;2023-08-31T01:57:50;13.38;80.78
68026;SHT31;54819;48.030;14.710;2023-08-31T02:00:22;13.29;81.06
68026;SHT31;54819;48.030;14.710;2023-08-31T02:02:49;13.21;81.22
68026;SHT31;54819;48.030;14.710;2023-08-31T02:05:15;13.15;81.41
68026;SHT31;54819;48.030;14.710;2023-08-31T02:07:42;13.08;81.60
68026;SHT31;54819;48.030;14.710;2023-08-31T02:10:09;13.00;81.76
68026;SHT31;54819;48.030;14.710;2023-08-31T02:12:36;12.94;81.91
68026;SHT31;54819;48.030;14.710;2023-08-31T02:15:04;12.88;82.11
68026;SHT31;54819;48.030;14.710;2023-08-31T02:17:32;12.82;82.32
68026;SHT31;54819;48.030;14.710;2023-08-31T02:20:01;12.78;82.48
68026;SHT31;54819;48.030;14.710;2023-08-31T02:22:31;12.76;82.61
68026;SHT31;54819;48.030;14.710;2023-08-31T02:25:00;12.76;82.73
68026;SHT31;54819;48.030;14.710;2023-08-31T02:27:27;12.78;82.89
68026;SHT31;54819;48.030;14.710;2023-08-31T02:29:54;12.78;82.97
68026;SHT31;54819;48.030;14.710;2023-08-31T02:32:21;12.80;83.01
68026;SHT31;54819;48.030;14.710;2023-08-31T02:34:48;12.82;83.11
68026;SHT31;54819;48.030;14.710;2023-08-31T02:37:15;12.87;83.17
68026;SHT31;54819;48.030;14.710;2023-08-31T02:39:43;12.91;83.20
68026;SHT31;54819;48.030;14.710;2023-08-31T02:42:09;12.93;83.20
68026;SHT31;54819;48.030;14.710;2023-08-31T02:44:37;12.94;83.19
68026;SHT31;54819;48.030;14.710;2023-08-31T02:47:03;12.93;83.12
68026;SHT31;54819;48.030;14.710;2023-08-31T02:49:30;12.92;83.06
68026;SHT31;54819;48.030;14.710;2023-08-31T02:51:57;12.91;83.00
68026;SHT31;54819;48.030;14.710;2023-08-31T02:54:23;12.89;83.00
68026;SHT31;54819;48.030;14.710;2023-08-31T02:56:50;12.86;83.00
68026;SHT31;54819;48.030;14.710;2023-08-31T02:59:17;12.82;83.00
68026;SHT31;54819;48.030;14.710;2023-08-31T03:01:44;12.80;83.00
68026;SHT31;54819;48.030;14.710;2023-08-31T03:04:13;12.80;83.01
68026;SHT31;54819;48.030;14.710;2023-08-31T03:06:39;12.79;83.02
68026;SHT31;54819;48.030;14.710;2023-08-31T03:09:06;12.79;83.08
68026;SHT31;54819;48.030;14.710;2023-08-31T03:11:33;12.79;83.10
68026;SHT31;54819;48.030;14.710;2023-08-31T03:13:59;12.78;83.17
68026;SHT31;54819;48.030;14.710;2023-08-31T03:16:26;12.75;83.24
68026;SHT31;54819;48.030;14.710;2023-08-31T03:18:53;12.73;83.27
68026;SHT31;54819;48.030;14.710;2023-08-31T03:21:19;12.69;83.34
68026;SHT31;54819;48.030;14.710;2023-08-31T03:23:46;12.65;83.30
68026;SHT31;54819;48.030;14.710;2023-08-31T03:26:13;12.62;83.38
68026;SHT31;54819;48.030;14.710;2023-08-31T03:28:39;12.58;83.57
68026;SHT31;54819;48.030;14.710;2023-08-31T03:31:07;12.54;83.69
68026;SHT31;54819;48.030;14.710;2023-08-31T03:33:34;12.54;83.70
68026;SHT31;54819;48.030;14.710;2023-08-31T03:36:01;12.52;83.81
68026;SHT31;54819;48.030;14.710;2023-08-31T03:38:31;12.51;83.90
68026;SHT31;54819;48.030;14.710;2023-08-31T03:40:59;12.48;83.90
68026;SHT31;54819;48.030;14.710;2023-08-31T03:43:26;12.46;84.00
68026;SHT31;54819;48.030;14.710;2023-08-31T03:45:55;12.42;84.14
68026;SHT31;54819;48.030;14.710;2023-08-31T03:48:24;12.39;84.26
68026;SHT31;54819;48.030;14.710;2023-08-31T03:50:51;12.37;84.30
68026;SHT31;54819;48.030;14.710;2023-08-31T03:53:20;12.37;84.39
68026;SHT31;54819;48.030;14.710;2023-08-31T03:55:47;12.37;84.42
68026;SHT31;54819;48.030;14.710;2023-08-31T03:58:14;12.35;84.53
68026;SHT31;54819;48.030;14.710;2023-08-31T04:00:43;12.33;84.67
68026;SHT31;54819;48.030;14.710;2023-08-31T04:03:10;12.34;84.60
68026;SHT31;54819;48.030;14.710;2023-08-31T04:05:38;12.33;84.62
68026;SHT31;54819;48.030;14.710;2023-08-31T04:08:05;12.33;84.77
68026;SHT31;54819;48.030;14.710;2023-08-31T04:10:34;12.34;85.13
68026;SHT31;54819;48.030;14.710;2023-08-31T04:13:00;12.34;85.02
68026;SHT31;54819;48.030;14.710;2023-08-31T04:15:27;12.37;85.12
68026;SHT31;54819;48.030;14.710;2023-08-31T04:17:54;12.42;85.19
68026;SHT31;54819;48.030;14.710;2023-08-31T04:20:21;12.47;85.34
68026;SHT31;54819;48.030;14.710;2023-08-31T04:22:48;12.51;85.33
68026;SHT31;54819;48.030;14.710;2023-08-31T04:25:14;12.58;85.38
68026;SHT31;54819;48.030;14.710;2023-08-31T04:27:42;12.62;85.40
68026;SHT31;54819;48.030;14.710;2023-08-31T04:30:10;12.69;85.48
68026;SHT31;54819;48.030;14.710;2023-08-31T04:32:37;12.77;85.53
68026;SHT31;54819;48.030;14.710;2023-08-31T04:35:04;12.82;85.50
68026;SHT31;54819;48.030;14.710;2023-08-31T04:37:32;12.87;85.46
68026;SHT31;54819;48.030;14.710;2023-08-31T04:39:59;12.90;85.37
68026;SHT31;54819;48.030;14.710;2023-08-31T04:42:26;12.91;85.24
68026;SHT31;54819;48.030;14.710;2023-08-31T04:44:53;12.94;85.20
68026;SHT31;54819;48.030;14.710;2023-08-31T04:47:19;12.97;85.11
68026;SHT31;54819;48.030;14.710;2023-08-31T04:49:46;12.95;85.12
68026;SHT31;54819;48.030;14.710;2023-08-31T04:52:13;12.97;85.16
68026;SHT31;54819;48.030;14.710;2023-08-31T04:54:39;12.99;85.09
68026;SHT31;54819;48.030;14.710;2023-08-31T04:57:06;12.99;85.00
68026;SHT31;54819;48.030;14.710;2023-08-31T04:59:33;13.03;84.97
68026;SHT31;54819;48.030;14.710;2023-08-31T05:02:00;13.07;84.89
68026;SHT31;54819;48.030;14.710;2023-08-31T05:04:27;13.10;84.81
68026;SHT31;54819;48.030;14.710;2023-08-31T05:06:55;13.13;84.76
68026;SHT31;54819;48.030;14.710;2023-08-31T05:09:23;13.17;84.73
68026;SHT31;54819;48.030;14.710;2023-08-31T05:11:51;13.19;84.67
68026;SHT31;54819;48.030;14.710;2023-08-31T05:14:17;13.22;84.66
68026;SHT31;54819;48.030;14.710;2023-08-31T05:16:44;13.27;84.65
68026;SHT31;54819;48.030;14.710;2023-08-31T05:19:11;13.32;84.67
68026;SHT31;54819;48.030;14.710;2023-08-31T05:21:38;13.38;84.70
68026;SHT31;54819;48.030;14.710;2023-08-31T05:24:05;13.45;84.69
68026;SHT31;54819;48.030;14.710;2023-08-31T05:26:32;13.51;84.58
68026;SHT31;54819;48.030;14.710;2023-08-31T05:28:58;13.58;84.43
68026;SHT31;54819;48.030;14.710;2023-08-31T05:31:25;13.65;84.30
68026;SHT31;54819;48.030;14.710;2023-08-31T05:33:52;13.72;84.21
68026;SHT31;54819;48.030;14.710;2023-08-31T05:36:19;13.77;84.06
68026;SHT31;54819;48.030;14.710;2023-08-31T05:38:45;13.85;83.96
68026;SHT31;54819;48.030;14.710;2023-08-31T05:41:12;13.93;83.87
68026;SHT31;54819;48.030;14.710;2023-08-31T05:43:39;14.06;83.69
68026;SHT31;54819;48.030;14.710;2023-08-31T05:46:09;14.25;83.39
68026;SHT31;54819;48.030;14.710;2023-08-31T05:48:36;14.43;83.18
68026;SHT31;54819;48.030;14.710;2023-08-31T05:51:03;14.56;83.06
68026;SHT31;54819;48.030;14.710;2023-08-31T05:53:30;14.65;82.81
68026;SHT31;54819;48.030;14.710;2023-08-31T05:55:58;14.82;82.40
68026;SHT31;54819;48.030;14.710;2023-08-31T05:58:30;15.01;81.60
68026;SHT31;54819;48.030;14.710;2023-08-31T06:00:59;15.17;81.19
68026;SHT31;54819;48.030;14.710;2023-08-31T06:03:27;15.37;80.73
68026;SHT31;54819;48.030;14.710;2023-08-31T06:05:54;15.60;80.39
68026;SHT31;54819;48.030;14.710;2023-08-31T06:08:22;15.89;79.97
68026;SHT31;54819;48.030;14.710;2023-08-31T06:10:49;16.17;79.37
68026;SHT31;54819;48.030;14.710;2023-08-31T06:13:16;16.39;78.57
68026;SHT31;54819;48.030;14.710;2023-08-31T06:15:43;16.57;78.35
68026;SHT31;54819;48.030;14.710;2023-08-31T06:18:11;16.67;78.20
68026;SHT31;54819;48.030;14.710;2023-08-31T06:20:38;16.73;77.85
68026;SHT31;54819;48.030;14.710;2023-08-31T06:23:05;16.77;77.74
68026;SHT31;54819;48.030;14.710;2023-08-31T06:25:32;16.77;77.43
68026;SHT31;54819;48.030;14.710;2023-08-31T06:27:58;16.79;77.38
68026;SHT31;54819;48.030;14.710;2023-08-31T06:30:25;16.80;76.92
68026;SHT31;54819;48.030;14.710;2023-08-31T06:32:52;16.81;76.29
68026;SHT31;54819;48.030;14.710;2023-08-31T06:35:19;16.78;75.66
68026;SHT31;54819;48.030;14.710;2023-08-31T06:37:47;16.74;75.18
68026;SHT31;54819;48.030;14.710;2023-08-31T06:40:14;16.67;75.29
68026;SHT31;54819;48.030;14.710;2023-08-31T06:42:41;16.61;75.89
68026;SHT31;54819;48.030;14.710;2023-08-31T06:45:07;16.49;76.05
68026;SHT31;54819;48.030;14.710;2023-08-31T06:47:35;16.42;76.01
68026;SHT31;54819;48.030;14.710;2023-08-31T06:50:02;16.40;76.66
68026;SHT31;54819;48.030;14.710;2023-08-31T06:52:30;16.44;76.57
68026;SHT31;54819;48.030;14.710;2023-08-31T06:54:58;16.47;76.65
68026;SHT31;54819;48.030;14.710;2023-08-31T06:57:26;16.48;76.40
68026;SHT31;54819;48.030;14.710;2023-08-31T06:59:53;16.47;76.39
68026;SHT31;54819;48.030;14.710;2023-08-31T07:02:21;16.48;76.61
68026;SHT31;54819;48.030;14.710;2023-08-31T07:04:51;16.50;76.45
68026;SHT31;54819;48.030;14.710;2023-08-31T07:07:19;16.54;76.47
68026;SHT31;54819;48.030;14.710;2023-08-31T07:09:46;16.58;76.52
68026;SHT31;54819;48.030;14.710;2023-08-31T07:12:15;16.63;76.44
68026;SHT31;54819;48.030;14.710;2023-08-31T07:14:41;16.70;76.25
68026;SHT31;54819;48.030;14.710;2023-08-31T07:17:08;16.77;76.04
68026;SHT31;54819;48.030;14.710;2023-08-31T07:19:36;16.85;75.94
68026;SHT31;54819;48.030;14.710;2023-08-31T07:22:03;16.94;75.79
68026;SHT31;54819;48.030;14.710;2023-08-31T07:24:32;17.03;75.35
68026;SHT31;54819;48.030;14.710;2023-08-31T07:27:02;17.13;75.22
68026;SHT31;54819;48.030;14.710;2023-08-31T07:29:29;17.23;74.99
68026;SHT31;54819;48.030;14.710;2023-08-31T07:31:56;17.33;74.97
68026;SHT31;54819;48.030;14.710;2023-08-31T07:34:24;17.42;74.76
68026;SHT31;54819;48.030;14.710;2023-08-31T07:36:50;17.54;74.65
68026;SHT31;54819;48.030;14.710;2023-08-31T07:39:17;17.72;74.40
68026;SHT31;54819;48.030;14.710;2023-08-31T07:41:44;17.93;73.44
68026;SHT31;54819;48.030;14.710;2023-08-31T07:44:11;18.12;72.62
68026;SHT31;54819;48.030;14.710;2023-08-31T07:46:37;18.31;72.72
68026;SHT31;54819;48.030;14.710;2023-08-31T07:49:04;18.46;72.39
68026;SHT31;54819;48.030;14.710;2023-08-31T07:51:31;18.60;71.45
68026;SHT31;54819;48.030;14.710;2023-08-31T07:53:59;18.66;71.63
68026;SHT31;54819;48.030;14.710;2023-08-31T07:56:26;18.68;71.24
68026;SHT31;54819;48.030;14.710;2023-08-31T07:58:53;18.76;71.07
68026;SHT31;54819;48.030;14.710;2023-08-31T08:01:20;18.88;70.97
68026;SHT31;54819;48.030;14.710;2023-08-31T08:03:46;19.05;70.47
68026;SHT31;54819;48.030;14.710;2023-08-31T08:06:13;19.28;70.64
68026;SHT31;54819;48.030;14.710;2023-08-31T08:08:40;19.45;69.84
68026;SHT31;54819;48.030;14.710;2023-08-31T08:11:07;19.50;67.98
68026;SHT31;54819;48.030;14.710;2023-08-31T08:13:34;19.52;68.53
68026;SHT31;54819;48.030;14.710;2023-08-31T08:16:01;19.56;68.98
68026;SHT31;54819;48.030;14.710;2023-08-31T08:18:27;19.58;68.71
68026;SHT31;54819;48.030;14.710;2023-08-31T08:20:57;19.57;68.44
68026;SHT31;54819;48.030;14.710;2023-08-31T08:23:23;19.55;68.12
68026;SHT31;54819;48.030;14.710;2023-08-31T08:25:50;19.41;68.34
68026;SHT31;54819;48.030;14.710;2023-08-31T08:28:17;19.41;68.53
68026;SHT31;54819;48.030;14.710;2023-08-31T08:30:44;19.42;68.44
68026;SHT31;54819;48.030;14.710;2023-08-31T08:33:10;19.37;67.62
68026;SHT31;54819;48.030;14.710;2023-08-31T08:35:38;19.34;67.54
68026;SHT31;54819;48.030;14.710;2023-08-31T08:38:05;19.45;67.35
68026;SHT31;54819;48.030;14.710;2023-08-31T08:40:31;19.59;66.37
68026;SHT31;54819;48.030;14.710;2023-08-31T08:43:02;19.65;66.09
68026;SHT31;54819;48.030;14.710;2023-08-31T08:45:36;19.66;65.22
68026;SHT31;54819;48.030;14.710;2023-08-31T08:48:05;19.71;65.61
68026;SHT31;54819;48.030;14.710;2023-08-31T08:50:34;19.85;65.48
68026;SHT31;54819;48.030;14.710;2023-08-31T08:53:05;20.09;65.28
68026;SHT31;54819;48.030;14.710;2023-08-31T08:55:33;20.38;64.54
68026;SHT31;54819;48.030;14.710;2023-08-31T08:57:59;20.55;64.33
68026;SHT31;54819;48.030;14.710;2023-08-31T09:00:26;20.75;64.07
68026;SHT31;54819;48.030;14.710;2023-08-31T09:02:54;20.98;64.13
68026;SHT31;54819;48.030;14.710;2023-08-31T09:05:22;21.04;63.10
68026;SHT31;54819;48.030;14.710;2023-08-31T09:08:03;20.99;63.20
68026;SHT31;54819;48.030;14.710;2023-08-31T09:10:34;20.86;62.73
68026;SHT31;54819;48.030;14.710;2023-08-31T09:13:06;20.69;62.99
68026;SHT31;54819;48.030;14.710;2023-08-31T09:15:41;20.44;62.01
68026;SHT31;54819;48.030;14.710;2023-08-31T09:18:15;20.29;62.48
68026;SHT31;54819;48.030;14.710;2023-08-31T09:20:46;20.24;63.15
68026;SHT31;54819;48.030;14.710;2023-08-31T09:23:14;20.26;62.74
68026;SHT31;54819;48.030;14.710;2023-08-31T09:25:52;20.34;62.97
68026;SHT31;54819;48.030;14.710;2023-08-31T09:28:21;20.38;62.64
68026;SHT31;54819;48.030;14.710;2023-08-31T09:30:50;20.40;62.71
68026;SHT31;54819;48.030;14.710;2023-08-31T09:33:18;20.46;62.72
68026;SHT31;54819;48.030;14.710;2023-08-31T09:35:47;20.53;62.88
68026;SHT31;54819;48.030;14.710;2023-08-31T09:38:18;20.60;63.23
68026;SHT31;54819;48.030;14.710;2023-08-31T09:40:45;20.74;61.77
68026;SHT31;54819;48.030;14.710;2023-08-31T09:43:31;20.89;61.19
68026;SHT31;54819;48.030;14.710;2023-08-31T09:45:57;21.10;61.50
68026;SHT31;54819;48.030;14.710;2023-08-31T09:48:26;21.36;61.44
68026;SHT31;54819;48.030;14.710;2023-08-31T09:51:00;21.58;61.19
68026;SHT31;54819;48.030;14.710;2023-08-31T09:53:29;21.72;60.32
68026;SHT31;54819;48.030;14.710;2023-08-31T09:55:56;21.65;60.37
68026;SHT31;54819;48.030;14.710;2023-08-31T09:58:26;21.63;60.70
68026;SHT31;54819;48.030;14.710;2023-08-31T10:00:55;21.65;60.51
68026;SHT31;54819;48.030;14.710;2023-08-31T10:03:22;21.65;60.10
68026;SHT31;54819;48.030;14.710;2023-08-31T10:05:49;21.66;59.93
68026;SHT31;54819;48.030;14.710;2023-08-31T10:08:17;21.75;60.26
68026;SHT31;54819;48.030;14.710;2023-08-31T10:10:44;21.94;59.70
68026;SHT31;54819;48.030;14.710;2023-08-31T10:13:13;22.17;58.93
68026;SHT31;54819;48.030;14.710;2023-08-31T10:15:43;22.30;57.63
68026;SHT31;54819;48.030;14.710;2023-08-31T10:18:10;22.44;58.42
68026;SHT31;54819;48.030;14.710;2023-08-31T10:20:37;22.40;57.61
68026;SHT31;54819;48.030;14.710;2023-08-31T10:23:09;22.26;57.89
68026;SHT31;54819;48.030;14.710;2023-08-31T10:28:46;21.75;58.44
68026;SHT31;54819;48.030;14.710;2023-08-31T10:31:07;21.41;59.05
68026;SHT31;54819;48.030;14.710;2023-08-31T10:33:42;21.18;59.30
68026;SHT31;54819;48.030;14.710;2023-08-31T10:36:46;21.09;59.51
68026;SHT31;54819;48.030;14.710;2023-08-31T10:39:20;21.10;60.28
68026;SHT31;54819;48.030;14.710;2023-08-31T10:41:53;21.09;60.34
68026;SHT31;54819;48.030;14.710;2023-08-31T10:44:21;20.85;60.12
68026;SHT31;54819;48.030;14.710;2023-08-31T10:46:49;20.58;60.23
68026;SHT31;54819;48.030;14.710;2023-08-31T10:49:20;20.43;61.22
68026;SHT31;54819;48.030;14.710;2023-08-31T10:51:49;20.32;61.88
68026;SHT31;54819;48.030;14.710;2023-08-31T10:54:26;20.24;62.12
68026;SHT31;54819;48.030;14.710;2023-08-31T10:59:24;20.30;62.08
68026;SHT31;54819;48.030;14.710;2023-08-31T11:01:53;20.29;61.47
68026;SHT31;54819;48.030;14.710;2023-08-31T11:04:21;20.30;61.19
68026;SHT31;54819;48.030;14.710;2023-08-31T11:09:50;20.66;60.15
68026;SHT31;54819;48.030;14.710;2023-08-31T11:12:16;20.82;58.89
68026;SHT31;54819;48.030;14.710;2023-08-31T11:14:43;20.94;57.90
68026;SHT31;54819;48.030;14.710;2023-08-31T11:17:10;21.07;57.98
68026;SHT31;54819;48.030;14.710;2023-08-31T11:19:37;21.18;57.71
68026;SHT31;54819;48.030;14.710;2023-08-31T11:22:04;21.25;57.95
68026;SHT31;54819;48.030;14.710;2023-08-31T11:24:32;21.39;58.32
68026;SHT31;54819;48.030;14.710;2023-08-31T11:26:59;21.36;55.65
68026;SHT31;54819;48.030;14.710;2023-08-31T11:29:30;21.35;56.02
68026;SHT31;54819;48.030;14.710;2023-08-31T11:31:56;21.47;56.02
68026;SHT31;54819;48.030;14.710;2023-08-31T11:34:26;21.53;55.32
68026;SHT31;54819;48.030;14.710;2023-08-31T11:36:53;21.60;55.41
68026;SHT31;54819;48.030;14.710;2023-08-31T11:39:20;21.70;55.50
68026;SHT31;54819;48.030;14.710;2023-08-31T11:41:47;21.80;55.33
68026;SHT31;54819;48.030;14.710;2023-08-31T11:44:14;21.86;54.68
68026;SHT31;54819;48.030;14.710;2023-08-31T11:46:45;21.82;54.34
68026;SHT31;54819;48.030;14.710;2023-08-31T11:49:17;21.79;54.55
68026;SHT31;54819;48.030;14.710;2023-08-31T11:51:44;21.69;53.76
68026;SHT31;54819;48.030;14.710;2023-08-31T11:54:17;21.77;54.11
68026;SHT31;54819;48.030;14.710;2023-08-31T11:56:44;21.88;54.33
68026;SHT31;54819;48.030;14.710;2023-08-31T11:59:15;22.06;54.55
68026;SHT31;54819;48.030;14.710;2023-08-31T12:01:43;22.16;54.26
68026;SHT31;54819;48.030;14.710;2023-08-31T12:04:31;22.10;53.99
68026;SHT31;54819;48.030;14.710;2023-08-31T12:07:03;22.01;54.95
68026;SHT31;54819;48.030;14.710;2023-08-31T12:09:31;21.94;53.95
68026;SHT31;54819;48.030;14.710;2023-08-31T12:11:58;21.58;53.72
68026;SHT31;54819;48.030;14.710;2023-08-31T12:14:27;21.20;54.43
68026;SHT31;54819;48.030;14.710;2023-08-31T12:17:01;21.27;55.61
68026;SHT31;54819;48.030;14.710;2023-08-31T12:19:30;21.40;56.39
68026;SHT31;54819;48.030;14.710;2023-08-31T12:21:57;21.53;56.66
68026;SHT31;54819;48.030;14.710;2023-08-31T12:24:25;21.65;56.20
68026;SHT31;54819;48.030;14.710;2023-08-31T12:26:52;21.78;56.31
68026;SHT31;54819;48.030;14.710;2023-08-31T12:29:23;21.86;55.81
68026;SHT31;54819;48.030;14.710;2023-08-31T12:31:49;21.98;55.99
68026;SHT31;54819;48.030;14.710;2023-08-31T12:34:17;22.11;56.06
68026;SHT31;54819;48.030;14.710;2023-08-31T12:36:43;22.16;56.14
68026;SHT31;54819;48.030;14.710;2023-08-31T12:39:10;22.20;56.09
68026;SHT31;54819;48.030;14.710;2023-08-31T12:41:38;22.15;55.33
68026;SHT31;54819;48.030;14.710;2023-08-31T12:44:06;21.96;55.02
68026;SHT31;54819;48.030;14.710;2023-08-31T12:46:34;21.91;54.81
68026;SHT31;54819;48.030;14.710;2023-08-31T12:49:01;21.88;56.12
68026;SHT31;54819;48.030;14.710;2023-08-31T12:51:30;21.81;57.04
68026;SHT31;54819;48.030;14.710;2023-08-31T12:53:57;21.80;57.98
68026;SHT31;54819;48.030;14.710;2023-08-31T12:56:24;21.85;56.98
68026;SHT31;54819;48.030;14.710;2023-08-31T12:58:51;21.79;56.69
68026;SHT31;54819;48.030;14.710;2023-08-31T13:01:19;21.73;56.29
68026;SHT31;54819;48.030;14.710;2023-08-31T13:03:47;21.65;56.24
68026;SHT31;54819;48.030;14.710;2023-08-31T13:06:14;21.56;55.97
68026;SHT31;54819;48.030;14.710;2023-08-31T13:08:45;21.60;56.64
68026;SHT31;54819;48.030;14.710;2023-08-31T13:11:11;21.77;56.50
68026;SHT31;54819;48.030;14.710;2023-08-31T13:13:39;21.86;55.88
68026;SHT31;54819;48.030;14.710;2023-08-31T13:16:07;21.97;55.73
68026;SHT31;54819;48.030;14.710;2023-08-31T13:18:34;22.07;56.66
68026;SHT31;54819;48.030;14.710;2023-08-31T13:21:01;22.21;56.12
68026;SHT31;54819;48.030;14.710;2023-08-31T13:23:29;22.28;55.34
68026;SHT31;54819;48.030;14.710;2023-08-31T13:25:56;22.33;55.71
68026;SHT31;54819;48.030;14.710;2023-08-31T13:28:22;22.43;56.01
68026;SHT31;54819;48.030;14.710;2023-08-31T13:30:50;22.50;55.83
68026;SHT31;54819;48.030;14.710;2023-08-31T13:33:21;22.49;54.96
68026;SHT31;54819;48.030;14.710;2023-08-31T13:35:48;22.34;54.48
68026;SHT31;54819;48.030;14.710;2023-08-31T13:38:14;22.16;54.80
68026;SHT31;54819;48.030;14.710;2023-08-31T13:40:41;21.95;55.02
68026;SHT31;54819;48.030;14.710;2023-08-31T13:43:07;21.85;55.88
68026;SHT31;54819;48.030;14.710;2023-08-31T13:45:34;21.69;55.13
68026;SHT31;54819;48.030;14.710;2023-08-31T13:48:01;21.69;55.99
68026;SHT31;54819;48.030;14.710;2023-08-31T13:50:30;21.70;55.41
68026;SHT31;54819;48.030;14.710;2023-08-31T13:52:57;21.71;55.94
68026;SHT31;54819;48.030;14.710;2023-08-31T13:55:24;21.72;56.32
68026;SHT31;54819;48.030;14.710;2023-08-31T13:57:50;21.70;56.21
68026;SHT31;54819;48.030;14.710;2023-08-31T14:00:17;21.65;55.92
68026;SHT31;54819;48.030;14.710;2023-08-31T14:02:44;21.62;56.43
68026;SHT31;54819;48.030;14.710;2023-08-31T14:05:11;21.66;56.50
68026;SHT31;54819;48.030;14.710;2023-08-31T14:07:38;21.59;55.86
68026;SHT31;54819;48.030;14.710;2023-08-31T14:10:05;21.52;56.00
68026;SHT31;54819;48.030;14.710;2023-08-31T14:12:33;21.52;55.97
68026;SHT31;54819;48.030;14.710;2023-08-31T14:15:00;21.52;56.16
68026;SHT31;54819;48.030;14.710;2023-08-31T14:17:30;21.56;56.46
68026;SHT31;54819;48.030;14.710;2023-08-31T14:20:00;21.50;55.70
68026;SHT31;54819;48.030;14.710;2023-08-31T14:22:32;21.38;55.89
68026;SHT31;54819;48.030;14.710;2023-08-31T14:24:59;21.32;56.37
68026;SHT31;54819;48.030;14.710;2023-08-31T14:27:27;21.31;56.30
68026;SHT31;54819;48.030;14.710;2023-08-31T14:29:57;21.40;56.57
68026;SHT31;54819;48.030;14.710;2023-08-31T14:32:24;21.51;56.60
68026;SHT31;54819;48.030;14.710;2023-08-31T14:34:51;21.58;55.76
68026;SHT31;54819;48.030;14.710;2023-08-31T14:37:20;21.63;55.46
68026;SHT31;54819;48.030;14.710;2023-08-31T14:39:47;21.64;55.27
68026;SHT31;54819;48.030;14.710;2023-08-31T14:42:14;21.63;55.36
68026;SHT31;54819;48.030;14.710;2023-08-31T14:44:42;21.67;56.27
68026;SHT31;54819;48.030;14.710;2023-08-31T14:47:10;21.63;54.89
68026;SHT31;54819;48.030;14.710;2023-08-31T14:49:38;21.61;55.08
68026;SHT31;54819;48.030;14.710;2023-08-31T14:52:06;21.59;54.84
68026;SHT31;54819;48.030;14.710;2023-08-31T14:54:33;21.56;54.82
68026;SHT31;54819;48.030;14.710;2023-08-31T14:57:00;21.60;55.15
68026;SHT31;54819;48.030;14.710;2023-08-31T14:59:27;21.66;54.86
68026;SHT31;54819;48.030;14.710;2023-08-31T15:01:53;21.70;54.89
68026;SHT31;54819;48.030;14.710;2023-08-31T15:04:20;21.66;55.21
68026;SHT31;54819;48.030;14.710;2023-08-31T15:06:47;21.58;55.20
68026;SHT31;54819;48.030;14.710;2023-08-31T15:09:13;21.52;55.50
68026;SHT31;54819;48.030;14.710;2023-08-31T15:11:40;21.43;54.03
68026;SHT31;54819;48.030;14.710;2023-08-31T15:14:07;21.40;55.52
68026;SHT31;54819;48.030;14.710;2023-08-31T15:16:34;21.45;56.02
68026;SHT31;54819;48.030;14.710;2023-08-31T15:19:02;21.51;55.49
68026;SHT31;54819;48.030;14.710;2023-08-31T15:21:28;21.60;55.19
68026;SHT31;54819;48.030;14.710;2023-08-31T15:23:55;21.64;55.33
68026;SHT31;54819;48.030;14.710;2023-08-31T15:26:22;21.60;55.66
68026;SHT31;54819;48.030;14.710;2023-08-31T15:28:49;21.56;55.62
68026;SHT31;54819;48.030;14.710;2023-08-31T15:31:17;21.52;55.75
68026;SHT31;54819;48.030;14.710;2023-08-31T15:33:44;21.47;55.57
68026;SHT31;54819;48.030;14.710;2023-08-31T15:36:10;21.45;56.13
68026;SHT31;54819;48.030;14.710;2023-08-31T15:38:37;21.43;56.08